createdAt,value
2023-05-01T00:00:48.868Z,0
2023-05-01T00:01:48.860Z,0
2023-05-01T00:02:48.954Z,0
2023-05-01T00:03:49.107Z,0
2023-05-01T00:04:48.912Z,0
2023-05-01T00:05:48.865Z,0
2023-05-01T00:06:48.882Z,0
2023-05-01T00:07:48.879Z,0
2023-05-01T00:08:48.869Z,0
2023-05-01T00:09:48.871Z,0
2023-05-01T00:10:48.872Z,0
2023-05-01T00:11:48.866Z,0
2023-05-01T00:12:48.874Z,0
2023-05-01T00:13:48.879Z,0
2023-05-01T00:14:48.869Z,0
2023-05-01T00:15:48.866Z,0
2023-05-01T00:16:48.961Z,0
2023-05-01T00:17:48.901Z,0
2023-05-01T00:18:48.872Z,0
2023-05-01T00:19:48.880Z,0
2023-05-01T00:20:48.868Z,0
2023-05-01T00:21:48.917Z,0
2023-05-01T00:22:48.874Z,0
2023-05-01T00:23:48.869Z,0
2023-05-01T00:24:48.886Z,0
2023-05-01T00:25:48.869Z,0
2023-05-01T00:26:48.865Z,0
2023-05-01T00:27:48.864Z,0
2023-05-01T00:28:48.863Z,0
2023-05-01T00:29:48.880Z,0
2023-05-01T00:30:48.857Z,0
2023-05-01T00:31:48.930Z,0
2023-05-01T00:32:48.919Z,0
2023-05-01T00:33:48.869Z,0
2023-05-01T00:34:48.870Z,0
2023-05-01T00:35:48.869Z,0
2023-05-01T00:36:49.837Z,0
2023-05-01T00:37:48.875Z,0
2023-05-01T00:38:48.878Z,0
2023-05-01T00:39:48.884Z,0
2023-05-01T00:40:48.856Z,0
2023-05-01T00:41:48.865Z,0
2023-05-01T00:42:48.875Z,0
2023-05-01T00:43:48.920Z,0
2023-05-01T00:44:48.875Z,0
2023-05-01T00:45:48.911Z,0
2023-05-01T00:46:48.875Z,0
2023-05-01T00:47:48.914Z,0
2023-05-01T00:48:48.866Z,0
2023-05-01T00:49:48.893Z,0
2023-05-01T00:50:48.875Z,0
2023-05-01T00:51:48.869Z,0
2023-05-01T00:52:48.860Z,0
2023-05-01T00:53:48.878Z,0
2023-05-01T00:54:48.879Z,0
2023-05-01T00:55:48.873Z,0
2023-05-01T00:56:48.870Z,0
2023-05-01T00:57:48.864Z,0
2023-05-01T00:58:48.871Z,0
2023-05-01T00:59:48.870Z,0
2023-05-01T01:00:48.913Z,0
2023-05-01T01:01:48.864Z,0
2023-05-01T01:02:48.898Z,0
2023-05-01T01:03:48.871Z,0
2023-05-01T01:04:49.008Z,0
2023-05-01T01:05:48.873Z,0
2023-05-01T01:06:49.104Z,0
2023-05-01T01:07:48.857Z,0
2023-05-01T01:08:48.881Z,0
2023-05-01T01:09:48.879Z,0
2023-05-01T01:10:48.884Z,0
2023-05-01T01:11:48.864Z,0
2023-05-01T01:12:48.863Z,0
2023-05-01T01:13:48.863Z,0
2023-05-01T01:14:48.881Z,0
2023-05-01T01:15:48.866Z,0
2023-05-01T01:16:48.928Z,0
2023-05-01T01:17:48.895Z,0
2023-05-01T01:18:48.874Z,0
2023-05-01T01:19:48.868Z,0
2023-05-01T01:20:48.869Z,0
2023-05-01T01:21:48.862Z,0
2023-05-01T01:22:48.862Z,0
2023-05-01T01:23:48.876Z,0
2023-05-01T01:24:48.873Z,0
2023-05-01T01:25:48.873Z,0
2023-05-01T01:26:48.854Z,0
2023-05-01T01:27:48.866Z,0
2023-05-01T01:28:48.880Z,0
2023-05-01T01:29:48.882Z,0
2023-05-01T01:30:48.926Z,0
2023-05-01T01:31:48.873Z,0
2023-05-01T01:32:48.931Z,0
2023-05-01T01:33:48.869Z,0
2023-05-01T01:34:48.875Z,0
2023-05-01T01:35:48.860Z,0
2023-05-01T01:36:48.871Z,0
2023-05-01T01:37:48.865Z,0
2023-05-01T01:38:48.883Z,0
2023-05-01T01:39:48.889Z,0
2023-05-01T01:40:48.868Z,0
2023-05-01T01:41:48.864Z,0
2023-05-01T01:42:48.869Z,0
2023-05-01T01:43:48.869Z,0
2023-05-01T01:44:48.891Z,0
2023-05-01T01:45:48.884Z,0
2023-05-01T01:46:48.929Z,0
2023-05-01T01:47:48.915Z,0
2023-05-01T01:48:48.864Z,0
2023-05-01T01:49:48.873Z,0
2023-05-01T01:50:48.869Z,0
2023-05-01T01:51:48.889Z,0
2023-05-01T01:52:48.862Z,0
2023-05-01T01:53:48.879Z,0
2023-05-01T01:54:48.867Z,0
2023-05-01T01:55:48.864Z,0
2023-05-01T01:56:48.859Z,0
2023-05-01T01:57:48.875Z,0
2023-05-01T01:58:48.865Z,0
2023-05-01T01:59:48.892Z,0
2023-05-01T02:00:48.862Z,0
2023-05-01T02:01:48.897Z,0
2023-05-01T02:02:48.984Z,0
2023-05-01T02:03:49.149Z,0
2023-05-01T02:04:48.866Z,0
2023-05-01T02:05:48.865Z,0
2023-05-01T02:06:48.987Z,0
2023-05-01T02:07:48.865Z,0
2023-05-01T02:08:48.893Z,0
2023-05-01T02:09:48.872Z,0
2023-05-01T02:10:48.868Z,0
2023-05-01T02:11:48.865Z,0
2023-05-01T02:12:48.867Z,0
2023-05-01T02:13:48.860Z,0
2023-05-01T02:14:48.875Z,0
2023-05-01T02:15:48.941Z,0
2023-05-01T02:16:48.871Z,0
2023-05-01T02:17:48.916Z,0
2023-05-01T02:18:48.866Z,0
2023-05-01T02:19:48.875Z,0
2023-05-01T02:20:48.873Z,0
2023-05-01T02:21:48.858Z,0
2023-05-01T02:22:48.873Z,0
2023-05-01T02:23:48.879Z,0
2023-05-01T02:24:48.878Z,0
2023-05-01T02:25:48.867Z,0
2023-05-01T02:26:48.874Z,0
2023-05-01T02:27:48.896Z,0
2023-05-01T02:28:48.864Z,0
2023-05-01T02:29:48.880Z,0
2023-05-01T02:30:48.870Z,0
2023-05-01T02:31:48.953Z,0
2023-05-01T02:32:48.937Z,0
2023-05-01T02:33:48.865Z,0
2023-05-01T02:34:48.902Z,0
2023-05-01T02:35:48.880Z,0
2023-05-01T02:36:48.872Z,0
2023-05-01T02:37:48.883Z,0
2023-05-01T02:38:48.898Z,0
2023-05-01T02:39:48.871Z,0
2023-05-01T02:40:48.874Z,0
2023-05-01T02:41:48.866Z,0
2023-05-01T02:42:48.869Z,0
2023-05-01T02:43:48.870Z,0
2023-05-01T02:44:48.878Z,0
2023-05-01T02:45:48.877Z,0
2023-05-01T02:46:48.880Z,0
2023-05-01T02:47:48.911Z,0
2023-05-01T02:48:48.863Z,0
2023-05-01T02:49:48.877Z,0
2023-05-01T02:50:48.865Z,0
2023-05-01T02:51:48.866Z,0
2023-05-01T02:52:48.861Z,0
2023-05-01T02:53:48.885Z,0
2023-05-01T02:54:48.864Z,0
2023-05-01T02:55:48.865Z,0
2023-05-01T02:56:48.863Z,0
2023-05-01T02:57:48.878Z,0
2023-05-01T02:58:48.873Z,0
2023-05-01T02:59:48.885Z,0
2023-05-01T03:00:48.899Z,0
2023-05-01T03:01:49.021Z,0
2023-05-01T03:02:48.880Z,0
2023-05-01T03:03:49.009Z,0
2023-05-01T03:04:49.046Z,0
2023-05-01T03:05:48.867Z,0
2023-05-01T03:06:48.924Z,1
2023-05-01T03:07:48.867Z,1
2023-05-01T03:08:48.881Z,1
2023-05-01T03:09:48.876Z,3
2023-05-01T03:10:48.867Z,3
2023-05-01T03:11:48.875Z,5
2023-05-01T03:12:48.865Z,7
2023-05-01T03:13:48.873Z,7
2023-05-01T03:14:48.879Z,9
2023-05-01T03:15:48.878Z,11
2023-05-01T03:16:48.910Z,14
2023-05-01T03:17:48.912Z,16
2023-05-01T03:18:48.873Z,18
2023-05-01T03:19:48.884Z,22
2023-05-01T03:20:48.863Z,25
2023-05-01T03:21:48.918Z,31
2023-05-01T03:22:48.870Z,35
2023-05-01T03:23:48.886Z,42
2023-05-01T03:24:48.870Z,47
2023-05-01T03:25:48.867Z,55
2023-05-01T03:26:48.935Z,62
2023-05-01T03:27:48.875Z,71
2023-05-01T03:28:48.876Z,81
2023-05-01T03:29:48.880Z,92
2023-05-01T03:30:48.888Z,103
2023-05-01T03:31:48.966Z,114
2023-05-01T03:32:48.975Z,129
2023-05-01T03:33:48.963Z,143
2023-05-01T03:34:48.875Z,156
2023-05-01T03:35:49.087Z,171
2023-05-01T03:36:48.878Z,188
2023-05-01T03:37:48.917Z,202
2023-05-01T03:38:48.909Z,223
2023-05-01T03:39:48.960Z,241
2023-05-01T03:40:48.948Z,261
2023-05-01T03:41:48.924Z,282
2023-05-01T03:42:48.904Z,305
2023-05-01T03:43:48.867Z,331
2023-05-01T03:44:48.991Z,359
2023-05-01T03:45:48.908Z,387
2023-05-01T03:46:48.875Z,416
2023-05-01T03:47:48.925Z,447
2023-05-01T03:48:48.878Z,475
2023-05-01T03:49:48.881Z,506
2023-05-01T03:50:48.862Z,540
2023-05-01T03:51:48.870Z,571
2023-05-01T03:52:48.861Z,606
2023-05-01T03:53:48.881Z,641
2023-05-01T03:54:48.874Z,681
2023-05-01T03:55:48.861Z,718
2023-05-01T03:56:48.862Z,753
2023-05-01T03:57:48.873Z,790
2023-05-01T03:58:48.877Z,827
2023-05-01T03:59:48.874Z,862
2023-05-01T04:00:48.871Z,903
2023-05-01T04:01:48.938Z,940
2023-05-01T04:02:49.113Z,975
2023-05-01T04:03:48.940Z,975
2023-05-01T04:04:48.876Z,1035
2023-05-01T04:05:48.882Z,1065
2023-05-01T04:06:48.911Z,1094
2023-05-01T04:07:48.868Z,1116
2023-05-01T04:08:48.880Z,1150
2023-05-01T04:09:48.882Z,1183
2023-05-01T04:10:48.877Z,1231
2023-05-01T04:11:48.872Z,1269
2023-05-01T04:12:48.875Z,1308
2023-05-01T04:13:48.886Z,1347
2023-05-01T04:14:48.883Z,1362
2023-05-01T04:15:48.943Z,1386
2023-05-01T04:16:48.873Z,1398
2023-05-01T04:17:48.934Z,1419
2023-05-01T04:18:48.908Z,1441
2023-05-01T04:19:48.867Z,1459
2023-05-01T04:20:48.866Z,1474
2023-05-01T04:21:48.861Z,1502
2023-05-01T04:22:48.864Z,1533
2023-05-01T04:23:48.886Z,1581
2023-05-01T04:24:48.881Z,1616
2023-05-01T04:25:48.886Z,1660
2023-05-01T04:26:48.875Z,1695
2023-05-01T04:27:48.898Z,1739
2023-05-01T04:28:48.869Z,1800
2023-05-01T04:29:48.879Z,1863
2023-05-01T04:30:48.911Z,1913
2023-05-01T04:31:48.905Z,1979
2023-05-01T04:32:49.003Z,2042
2023-05-01T04:33:48.865Z,2086
2023-05-01T04:34:48.886Z,2128
2023-05-01T04:35:48.864Z,2176
2023-05-01T04:36:48.877Z,2211
2023-05-01T04:37:48.865Z,2233
2023-05-01T04:38:48.886Z,2257
2023-05-01T04:39:48.865Z,2292
2023-05-01T04:40:48.871Z,2339
2023-05-01T04:41:48.893Z,2361
2023-05-01T04:42:48.869Z,2390
2023-05-01T04:43:48.873Z,2418
2023-05-01T04:44:48.869Z,2433
2023-05-01T04:45:48.859Z,2464
2023-05-01T04:46:48.899Z,2497
2023-05-01T04:47:48.901Z,2534
2023-05-01T04:48:48.885Z,2567
2023-05-01T04:49:48.864Z,2597
2023-05-01T04:50:48.867Z,2606
2023-05-01T04:51:48.869Z,2680
2023-05-01T04:52:48.859Z,2713
2023-05-01T04:53:48.875Z,2755
2023-05-01T04:54:48.877Z,2775
2023-05-01T04:55:48.868Z,2803
2023-05-01T04:56:48.866Z,2834
2023-05-01T04:57:48.875Z,2869
2023-05-01T04:58:48.879Z,2884
2023-05-01T04:59:48.872Z,2904
2023-05-01T05:00:48.872Z,2928
2023-05-01T05:01:48.888Z,2965
2023-05-01T05:02:48.937Z,2993
2023-05-01T05:03:50.259Z,2993
2023-05-01T05:04:48.876Z,3100
2023-05-01T05:05:48.869Z,3161
2023-05-01T05:06:49.005Z,3210
2023-05-01T05:07:48.874Z,3264
2023-05-01T05:08:48.882Z,3312
2023-05-01T05:09:48.869Z,3347
2023-05-01T05:10:48.876Z,3393
2023-05-01T05:11:48.874Z,3433
2023-05-01T05:12:48.873Z,3465
2023-05-01T05:13:48.871Z,3494
2023-05-01T05:14:48.878Z,3518
2023-05-01T05:15:48.866Z,3524
2023-05-01T05:16:49.023Z,3537
2023-05-01T05:17:48.936Z,3568
2023-05-01T05:18:48.876Z,3586
2023-05-01T05:19:48.879Z,3618
2023-05-01T05:20:48.868Z,3656
2023-05-01T05:21:48.862Z,3673
2023-05-01T05:22:48.865Z,3728
2023-05-01T05:23:48.883Z,3771
2023-05-01T05:24:48.873Z,3793
2023-05-01T05:25:48.870Z,3833
2023-05-01T05:26:48.870Z,3879
2023-05-01T05:27:48.865Z,3909
2023-05-01T05:28:48.869Z,3953
2023-05-01T05:29:48.904Z,3986
2023-05-01T05:30:48.869Z,3997
2023-05-01T05:31:48.896Z,4032
2023-05-01T05:32:48.883Z,4066
2023-05-01T05:33:48.887Z,4079
2023-05-01T05:34:48.877Z,4128
2023-05-01T05:35:48.874Z,4154
2023-05-01T05:36:48.867Z,4187
2023-05-01T05:37:48.869Z,4189
2023-05-01T05:38:48.885Z,4187
2023-05-01T05:39:48.877Z,4167
2023-05-01T05:40:48.871Z,4252
2023-05-01T05:41:48.870Z,4196
2023-05-01T05:42:48.870Z,4208
2023-05-01T05:43:48.873Z,4189
2023-05-01T05:44:48.868Z,4233
2023-05-01T05:45:48.924Z,4208
2023-05-01T05:46:48.876Z,4220
2023-05-01T05:47:48.911Z,4224
2023-05-01T05:48:48.868Z,4272
2023-05-01T05:49:48.880Z,4220
2023-05-01T05:50:48.855Z,4239
2023-05-01T05:51:48.868Z,4228
2023-05-01T05:52:48.865Z,4220
2023-05-01T05:53:48.897Z,4202
2023-05-01T05:54:48.879Z,4176
2023-05-01T05:55:48.863Z,4163
2023-05-01T05:56:48.870Z,4163
2023-05-01T05:57:48.868Z,4204
2023-05-01T05:58:48.868Z,4268
2023-05-01T05:59:48.883Z,4267
2023-05-01T06:00:48.876Z,4281
2023-05-01T06:01:48.862Z,4261
2023-05-01T06:02:48.992Z,4268
2023-05-01T06:03:48.905Z,4268
2023-05-01T06:04:48.877Z,4267
2023-05-01T06:05:48.938Z,4267
2023-05-01T06:06:48.980Z,4261
2023-05-01T06:07:48.887Z,4281
2023-05-01T06:08:49.036Z,4267
2023-05-01T06:09:48.879Z,4259
2023-05-01T06:10:48.870Z,4235
2023-05-01T06:11:48.871Z,4226
2023-05-01T06:12:52.021Z,4176
2023-05-01T06:13:48.870Z,4152
2023-05-01T06:14:48.885Z,4141
2023-05-01T06:15:48.952Z,4174
2023-05-01T06:16:48.872Z,4211
2023-05-01T06:17:48.897Z,4267
2023-05-01T06:18:48.874Z,4338
2023-05-01T06:19:48.887Z,4366
2023-05-01T06:20:48.872Z,4412
2023-05-01T06:21:48.882Z,4488
2023-05-01T06:22:48.874Z,4580
2023-05-01T06:23:48.885Z,4668
2023-05-01T06:24:48.881Z,4755
2023-05-01T06:25:48.883Z,4849
2023-05-01T06:26:48.868Z,4982
2023-05-01T06:27:48.875Z,5078
2023-05-01T06:28:48.874Z,5151
2023-05-01T06:29:48.875Z,5192
2023-05-01T06:30:48.873Z,5282
2023-05-01T06:31:48.888Z,5312
2023-05-01T06:32:48.949Z,5356
2023-05-01T06:33:48.864Z,5430
2023-05-01T06:34:48.879Z,5457
2023-05-01T06:35:48.869Z,5540
2023-05-01T06:36:48.862Z,5536
2023-05-01T06:37:48.861Z,5619
2023-05-01T06:38:48.976Z,5612
2023-05-01T06:39:48.871Z,5638
2023-05-01T06:40:48.861Z,5699
2023-05-01T06:41:48.869Z,6073
2023-05-01T06:42:48.878Z,8021
2023-05-01T06:43:48.863Z,9953
2023-05-01T06:44:48.863Z,10803
2023-05-01T06:45:48.879Z,10721
2023-05-01T06:46:48.926Z,10653
2023-05-01T06:47:48.888Z,10154
2023-05-01T06:48:48.862Z,9853
2023-05-01T06:49:48.873Z,9698
2023-05-01T06:50:48.869Z,7767
2023-05-01T06:51:48.871Z,10384
2023-05-01T06:52:48.873Z,9039
2023-05-01T06:53:48.889Z,9571
2023-05-01T06:54:48.872Z,9370
2023-05-01T06:55:48.861Z,10078
2023-05-01T06:56:48.871Z,10423
2023-05-01T06:57:48.858Z,10904
2023-05-01T06:58:48.866Z,12034
2023-05-01T06:59:48.875Z,11520
2023-05-01T07:00:48.874Z,11261
2023-05-01T07:01:48.875Z,11564
2023-05-01T07:02:49.041Z,11520
2023-05-01T07:03:48.879Z,11520
2023-05-01T07:04:48.871Z,12050
2023-05-01T07:05:48.877Z,12911
2023-05-01T07:06:48.904Z,12887
2023-05-01T07:07:57.936Z,13136
2023-05-01T07:08:48.886Z,13230
2023-05-01T07:09:48.873Z,13540
2023-05-01T07:10:48.870Z,13860
2023-05-01T07:11:48.865Z,14045
2023-05-01T07:12:48.879Z,14004
2023-05-01T07:13:48.875Z,13578
2023-05-01T07:14:48.879Z,13341
2023-05-01T07:15:48.875Z,12909
2023-05-01T07:16:48.915Z,12648
2023-05-01T07:17:48.898Z,12504
2023-05-01T07:18:48.876Z,12598
2023-05-01T07:19:48.874Z,13070
2023-05-01T07:20:48.870Z,13471
2023-05-01T07:21:48.871Z,13510
2023-05-01T07:22:48.874Z,13143
2023-05-01T07:23:48.893Z,13582
2023-05-01T07:24:48.883Z,13053
2023-05-01T07:25:48.872Z,13429
2023-05-01T07:26:48.880Z,13177
2023-05-01T07:27:48.879Z,13149
2023-05-01T07:28:48.869Z,13411
2023-05-01T07:29:48.875Z,13580
2023-05-01T07:30:48.868Z,13835
2023-05-01T07:31:48.927Z,13860
2023-05-01T07:32:48.931Z,13661
2023-05-01T07:33:48.892Z,13658
2023-05-01T07:34:48.890Z,13656
2023-05-01T07:35:48.876Z,13617
2023-05-01T07:36:48.877Z,13888
2023-05-01T07:37:48.874Z,13770
2023-05-01T07:38:49.053Z,13540
2023-05-01T07:39:48.873Z,13654
2023-05-01T07:40:48.861Z,13206
2023-05-01T07:41:48.876Z,13320
2023-05-01T07:42:48.868Z,13788
2023-05-01T07:43:48.853Z,14220
2023-05-01T07:44:48.876Z,14181
2023-05-01T07:45:48.903Z,14238
2023-05-01T07:46:48.862Z,14738
2023-05-01T07:47:48.908Z,15066
2023-05-01T07:48:48.869Z,14343
2023-05-01T07:49:48.899Z,14102
2023-05-01T07:50:48.881Z,14384
2023-05-01T07:51:48.859Z,14557
2023-05-01T07:52:48.876Z,14437
2023-05-01T07:53:48.894Z,15042
2023-05-01T07:54:48.883Z,14397
2023-05-01T07:55:48.869Z,14360
2023-05-01T07:56:49.847Z,14789
2023-05-01T07:57:48.869Z,15060
2023-05-01T07:58:48.867Z,15246
2023-05-01T07:59:48.878Z,15364
2023-05-01T08:00:48.875Z,15453
2023-05-01T08:01:48.869Z,15764
2023-05-01T08:02:48.904Z,15938
2023-05-01T08:03:50.915Z,15938
2023-05-01T08:04:48.916Z,15875
2023-05-01T08:05:48.863Z,15995
2023-05-01T08:06:48.926Z,16509
2023-05-01T08:07:48.859Z,15117
2023-05-01T08:08:48.878Z,15361
2023-05-01T08:09:48.880Z,16692
2023-05-01T08:10:48.875Z,16911
2023-05-01T08:11:48.858Z,17040
2023-05-01T08:12:48.869Z,17154
2023-05-01T08:13:48.864Z,16920
2023-05-01T08:14:48.874Z,17121
2023-05-01T08:15:48.909Z,17259
2023-05-01T08:16:48.905Z,17429
2023-05-01T08:17:48.953Z,17348
2023-05-01T08:18:48.877Z,18597
2023-05-01T08:19:48.874Z,17038
2023-05-01T08:20:48.930Z,17385
2023-05-01T08:21:48.880Z,17477
2023-05-01T08:22:48.871Z,17416
2023-05-01T08:23:48.894Z,17668
2023-05-01T08:24:48.872Z,17726
2023-05-01T08:25:48.872Z,16129
2023-05-01T08:26:48.900Z,16929
2023-05-01T08:27:48.872Z,17604
2023-05-01T08:28:48.881Z,18376
2023-05-01T08:29:48.881Z,19023
2023-05-01T08:30:48.878Z,18760
2023-05-01T08:31:48.926Z,18126
2023-05-01T08:32:48.903Z,17783
2023-05-01T08:33:48.867Z,17622
2023-05-01T08:34:48.902Z,18767
2023-05-01T08:35:48.878Z,18470
2023-05-01T08:36:48.861Z,18290
2023-05-01T08:37:48.874Z,19412
2023-05-01T08:38:48.887Z,17816
2023-05-01T08:39:48.891Z,17033
2023-05-01T08:40:48.864Z,17950
2023-05-01T08:41:59.976Z,17903
2023-05-01T08:42:58.794Z,17582
2023-05-01T08:43:58.775Z,17726
2023-05-01T08:44:58.779Z,17761
2023-05-01T08:45:58.751Z,17490
2023-05-01T08:47:05.588Z,17156
2023-05-01T08:48:04.545Z,16821
2023-05-01T08:49:04.434Z,16301
2023-05-01T08:50:04.452Z,16950
2023-05-01T08:51:04.433Z,17748
2023-05-01T08:52:04.448Z,18203
2023-05-01T08:53:04.446Z,18238
2023-05-01T08:54:04.461Z,17867
2023-05-01T08:55:04.425Z,18373
2023-05-01T08:56:04.433Z,18697
2023-05-01T08:57:04.434Z,19410
2023-05-01T08:58:04.417Z,19534
2023-05-01T08:59:04.422Z,18522
2023-05-01T09:00:04.462Z,18852
2023-05-01T09:01:04.441Z,18730
2023-05-01T09:02:04.499Z,19451
2023-05-01T09:03:04.488Z,19451
2023-05-01T09:04:04.515Z,19451
2023-05-01T09:05:04.425Z,19626
2023-05-01T09:06:04.428Z,19451
2023-05-01T09:07:04.409Z,19652
2023-05-01T09:08:04.434Z,19554
2023-05-01T09:09:04.579Z,20446
2023-05-01T09:10:04.422Z,19884
2023-05-01T09:11:04.462Z,19867
2023-05-01T09:12:04.427Z,19829
2023-05-01T09:13:04.429Z,20323
2023-05-01T09:14:04.419Z,20197
2023-05-01T09:15:04.458Z,20358
2023-05-01T09:16:04.467Z,20494
2023-05-01T09:17:04.411Z,20874
2023-05-01T09:18:04.523Z,20660
2023-05-01T09:19:04.421Z,20566
2023-05-01T09:20:04.448Z,20323
2023-05-01T09:21:04.422Z,19184
2023-05-01T09:22:04.426Z,19666
2023-05-01T09:23:04.430Z,19889
2023-05-01T09:24:04.447Z,20273
2023-05-01T09:25:04.464Z,20365
2023-05-01T09:26:04.415Z,20533
2023-05-01T09:27:04.416Z,20848
2023-05-01T09:28:04.494Z,20994
2023-05-01T09:29:04.412Z,20964
2023-05-01T09:30:04.421Z,20791
2023-05-01T09:31:04.427Z,20844
2023-05-01T09:32:04.463Z,20761
2023-05-01T09:33:04.526Z,20912
2023-05-01T09:34:04.424Z,21054
2023-05-01T09:35:04.429Z,20900
2023-05-01T09:36:04.434Z,20767
2023-05-01T09:37:04.426Z,20535
2023-05-01T09:38:04.447Z,20415
2023-05-01T09:39:04.462Z,20453
2023-05-01T09:40:04.439Z,20183
2023-05-01T09:41:04.427Z,20348
2023-05-01T09:42:04.421Z,20199
2023-05-01T09:43:04.407Z,20702
2023-05-01T09:44:04.419Z,21209
2023-05-01T09:45:04.426Z,21030
2023-05-01T09:46:04.521Z,21161
2023-05-01T09:47:04.429Z,20232
2023-05-01T09:48:04.482Z,20138
2023-05-01T09:49:04.413Z,19698
2023-05-01T09:50:04.462Z,20802
2023-05-01T09:51:04.409Z,20234
2023-05-01T09:52:04.414Z,20347
2023-05-01T09:53:04.427Z,20326
2023-05-01T09:54:04.436Z,20254
2023-05-01T09:55:04.424Z,20964
2023-05-01T09:56:04.412Z,20242
2023-05-01T09:57:04.425Z,19930
2023-05-01T09:58:04.412Z,20404
2023-05-01T09:59:04.414Z,20833
2023-05-01T10:00:04.426Z,20527
2023-05-01T10:01:04.490Z,20787
2023-05-01T10:02:04.450Z,20669
2023-05-01T10:03:05.351Z,20863
2023-05-01T10:04:04.460Z,20863
2023-05-01T10:05:04.424Z,19807
2023-05-01T10:06:04.496Z,20160
2023-05-01T10:07:04.455Z,20682
2023-05-01T10:08:04.422Z,19560
2023-05-01T10:09:04.452Z,20125
2023-05-01T10:10:04.700Z,21250
2023-05-01T10:11:04.418Z,20909
2023-05-01T10:12:04.427Z,19705
2023-05-01T10:13:04.424Z,20909
2023-05-01T10:14:04.420Z,20431
2023-05-01T10:15:17.291Z,20549
2023-05-01T10:16:04.429Z,21473
2023-05-01T10:17:04.458Z,21161
2023-05-01T10:18:04.486Z,21049
2023-05-01T10:19:04.723Z,20675
2023-05-01T10:20:04.428Z,20881
2023-05-01T10:21:04.426Z,20301
2023-05-01T10:22:04.435Z,20536
2023-05-01T10:23:04.429Z,20525
2023-05-01T10:24:04.435Z,20474
2023-05-01T10:25:04.434Z,19974
2023-05-01T10:26:05.274Z,20201
2023-05-01T10:27:04.425Z,19431
2023-05-01T10:28:04.427Z,19337
2023-05-01T10:29:04.437Z,19233
2023-05-01T10:30:04.439Z,20642
2023-05-01T10:31:04.441Z,20557
2023-05-01T10:32:04.511Z,19757
2023-05-01T10:33:04.506Z,20164
2023-05-01T10:34:04.430Z,19462
2023-05-01T10:35:04.436Z,19305
2023-05-01T10:36:04.442Z,19167
2023-05-01T10:37:04.421Z,19278
2023-05-01T10:38:04.409Z,18454
2023-05-01T10:39:04.444Z,18116
2023-05-01T10:40:04.424Z,17877
2023-05-01T10:41:04.449Z,17932
2023-05-01T10:42:04.424Z,18411
2023-05-01T10:43:04.432Z,19090
2023-05-01T10:44:04.411Z,18984
2023-05-01T10:45:04.425Z,19431
2023-05-01T10:46:04.438Z,19665
2023-05-01T10:47:04.421Z,20455
2023-05-01T10:48:04.452Z,19502
2023-05-01T10:49:04.409Z,19646
2023-05-01T10:50:04.495Z,19606
2023-05-01T10:51:04.424Z,19689
2023-05-01T10:52:04.419Z,20258
2023-05-01T10:53:04.413Z,20870
2023-05-01T10:54:04.437Z,22590
2023-05-01T10:55:04.612Z,21185
2023-05-01T10:56:04.421Z,20723
2023-05-01T10:57:04.424Z,20754
2023-05-01T10:58:04.422Z,20579
2023-05-01T10:59:04.438Z,20653
2023-05-01T11:00:04.425Z,20630
2023-05-01T11:01:04.421Z,19698
2023-05-01T11:02:04.492Z,19289
2023-05-01T11:03:04.430Z,20136
2023-05-01T11:04:04.426Z,20136
2023-05-01T11:05:04.482Z,20787
2023-05-01T11:06:04.529Z,21075
2023-05-01T11:07:04.480Z,21346
2023-05-01T11:08:04.432Z,21847
2023-05-01T11:09:04.484Z,20492
2023-05-01T11:10:04.438Z,20553
2023-05-01T11:11:04.419Z,20804
2023-05-01T11:12:04.406Z,20691
2023-05-01T11:13:04.424Z,20802
2023-05-01T11:14:04.451Z,20603
2023-05-01T11:15:04.430Z,20358
2023-05-01T11:16:04.429Z,19714
2023-05-01T11:17:04.428Z,20050
2023-05-01T11:18:04.452Z,20583
2023-05-01T11:19:04.429Z,19502
2023-05-01T11:20:04.435Z,19490
2023-05-01T11:21:04.437Z,18811
2023-05-01T11:22:04.419Z,18973
2023-05-01T11:23:04.430Z,19104
2023-05-01T11:24:04.454Z,19261
2023-05-01T11:25:04.423Z,18804
2023-05-01T11:26:04.425Z,18894
2023-05-01T11:27:04.430Z,18568
2023-05-01T11:28:04.426Z,18743
2023-05-01T11:29:04.430Z,18422
2023-05-01T11:30:04.430Z,18542
2023-05-01T11:31:04.448Z,18907
2023-05-01T11:32:04.481Z,19077
2023-05-01T11:33:04.488Z,19213
2023-05-01T11:34:04.439Z,19156
2023-05-01T11:35:04.432Z,18907
2023-05-01T11:36:04.420Z,19012
2023-05-01T11:37:04.453Z,19617
2023-05-01T11:38:04.433Z,19287
2023-05-01T11:39:04.436Z,19952
2023-05-01T11:40:04.421Z,20562
2023-05-01T11:41:04.419Z,19517
2023-05-01T11:42:04.436Z,19731
2023-05-01T11:43:04.426Z,19478
2023-05-01T11:44:04.422Z,19259
2023-05-01T11:45:04.432Z,18564
2023-05-01T11:46:04.530Z,17786
2023-05-01T11:47:04.422Z,17891
2023-05-01T11:48:05.184Z,17121
2023-05-01T11:49:04.413Z,17283
2023-05-01T11:50:04.418Z,18015
2023-05-01T11:51:04.408Z,18319
2023-05-01T11:52:04.425Z,19075
2023-05-01T11:53:04.425Z,20949
2023-05-01T11:54:04.442Z,19635
2023-05-01T11:55:04.569Z,19421
2023-05-01T11:56:13.255Z,19316
2023-05-01T11:57:04.418Z,20391
2023-05-01T11:58:04.418Z,20678
2023-05-01T11:59:04.434Z,20789
2023-05-01T12:00:04.415Z,21548
2023-05-01T12:01:04.420Z,20747
2023-05-01T12:02:04.479Z,20699
2023-05-01T12:03:04.637Z,20136
2023-05-01T12:04:04.558Z,20136
2023-05-01T12:05:04.509Z,20435
2023-05-01T12:06:04.454Z,20343
2023-05-01T12:07:04.416Z,20037
2023-05-01T12:08:04.419Z,20529
2023-05-01T12:09:04.437Z,20621
2023-05-01T12:10:04.430Z,20396
2023-05-01T12:11:04.420Z,20190
2023-05-01T12:12:04.413Z,20129
2023-05-01T12:13:04.431Z,20243
2023-05-01T12:14:04.408Z,20063
2023-05-01T12:15:04.429Z,20887
2023-05-01T12:16:04.409Z,20041
2023-05-01T12:17:04.460Z,19786
2023-05-01T12:18:04.475Z,19180
2023-05-01T12:19:04.401Z,18780
2023-05-01T12:20:04.445Z,19342
2023-05-01T12:21:04.412Z,19753
2023-05-01T12:22:04.420Z,20055
2023-05-01T12:23:04.407Z,19980
2023-05-01T12:24:50.593Z,19854
2023-05-01T12:25:49.564Z,19180
2023-05-01T12:26:49.536Z,19408
2023-05-01T12:28:31.271Z,19077
2023-05-01T12:29:30.243Z,18865
2023-05-01T12:30:30.224Z,18811
2023-05-01T12:31:30.390Z,19287
2023-05-01T12:32:30.249Z,19473
2023-05-01T12:33:30.233Z,19362
2023-05-01T12:34:30.209Z,19233
2023-05-01T12:35:30.202Z,18586
2023-05-01T12:36:30.197Z,18417
2023-05-01T12:37:30.216Z,18940
2023-05-01T12:38:30.176Z,19403
2023-05-01T12:39:30.199Z,20000
2023-05-01T12:40:30.199Z,19827
2023-05-01T12:41:30.188Z,19233
2023-05-01T12:42:30.179Z,18599
2023-05-01T12:43:30.201Z,18389
2023-05-01T12:44:30.192Z,18695
2023-05-01T12:45:30.174Z,18949
2023-05-01T12:46:30.264Z,19313
2023-05-01T12:47:30.238Z,20280
2023-05-01T12:48:30.202Z,21006
2023-05-01T12:49:30.204Z,19182
2023-05-01T12:50:30.191Z,19091
2023-05-01T12:51:30.179Z,18725
2023-05-01T12:52:30.229Z,18706
2023-05-01T12:53:30.188Z,19014
2023-05-01T12:54:30.204Z,18913
2023-05-01T12:55:30.186Z,18618
2023-05-01T12:56:30.188Z,18304
2023-05-01T12:57:30.182Z,18330
2023-05-01T12:58:31.237Z,18408
2023-05-01T12:59:30.200Z,18406
2023-05-01T13:00:30.177Z,18758
2023-05-01T13:01:30.178Z,18791
2023-05-01T13:02:30.224Z,18754
2023-05-01T13:03:30.272Z,18754
2023-05-01T13:04:30.557Z,18701
2023-05-01T13:05:30.179Z,18820
2023-05-01T13:06:30.260Z,18765
2023-05-01T13:07:30.193Z,18561
2023-05-01T13:08:30.208Z,18420
2023-05-01T13:09:30.215Z,18393
2023-05-01T13:10:30.178Z,18570
2023-05-01T13:11:30.183Z,18592
2023-05-01T13:12:30.190Z,18520
2023-05-01T13:13:30.179Z,18433
2023-05-01T13:14:30.350Z,18365
2023-05-01T13:15:30.193Z,18437
2023-05-01T13:16:30.255Z,18472
2023-05-01T13:17:30.245Z,18243
2023-05-01T13:18:30.181Z,17895
2023-05-01T13:19:30.203Z,17773
2023-05-01T13:20:30.170Z,17781
2023-05-01T13:21:30.173Z,18190
2023-05-01T13:22:30.179Z,18293
2023-05-01T13:23:30.177Z,17919
2023-05-01T13:24:30.192Z,17663
2023-05-01T13:25:30.182Z,17587
2023-05-01T13:26:30.174Z,17685
2023-05-01T13:27:30.175Z,17961
2023-05-01T13:28:30.184Z,17925